Joussard, Canada
Current Conditions -  °F | °C
As of 5:50 AM on Tuesday 21 Oct 2014 (Local Time) from CYZH Reporting Station
Haze Haze  
Wind Chill: 43°   Ceiling: 13000
Heat Index: 43°   Visibility: 3mi
Dew Point: 41°   Wind: 2mph
Humidity: 93%   Direction: 160°SSE
Pressure: 29.57"   Gusts: NA
Location:  55.37°N, 115.93°W
Report Text: CYZH 211150Z AUTO 16002KT 3SM BR OVC130 06/05 A2957 RMK SLP027
Loading
Personal Weather Stations






























Interactive Weather Map
Tropical Storm Tracking
New forecast layout! Learn more

10-Day Weather Forecast

Advertisements
Track Severe Weather on mobile